sensor_id;sensor_type;location;lat;lon;timestamp;temperature;humidity
17728;DHT22;8984;49.268;12.302;2023-07-31T00:01:07;17.80;99.90
17728;DHT22;8984;49.268;12.302;2023-07-31T00:03:33;17.70;99.90
17728;DHT22;8984;49.268;12.302;2023-07-31T00:06:00;17.70;99.90
17728;DHT22;8984;49.268;12.302;2023-07-31T00:08:27;17.60;99.90
17728;DHT22;8984;49.268;12.302;2023-07-31T00:10:54;17.60;99.90
17728;DHT22;8984;49.268;12.302;2023-07-31T00:13:20;17.50;99.90
17728;DHT22;8984;49.268;12.302;2023-07-31T00:15:47;17.50;99.90
17728;DHT22;8984;49.268;12.302;2023-07-31T00:18:15;17.50;99.90
17728;DHT22;8984;49.268;12.302;2023-07-31T00:20:42;17.50;99.90
17728;DHT22;8984;49.268;12.302;2023-07-31T00:23:09;17.40;99.90
17728;DHT22;8984;49.268;12.302;2023-07-31T00:25:35;17.40;99.90
17728;DHT22;8984;49.268;12.302;2023-07-31T00:28:02;17.30;99.90
17728;DHT22;8984;49.268;12.302;2023-07-31T00:30:30;17.30;99.90
17728;DHT22;8984;49.268;12.302;2023-07-31T00:32:56;17.30;99.90
17728;DHT22;8984;49.268;12.302;2023-07-31T00:35:24;17.30;99.90
17728;DHT22;8984;49.268;12.302;2023-07-31T00:37:51;17.20;99.90
17728;DHT22;8984;49.268;12.302;2023-07-31T00:40:18;17.20;99.90
17728;DHT22;8984;49.268;12.302;2023-07-31T00:42:44;17.20;99.90
17728;DHT22;8984;49.268;12.302;2023-07-31T00:45:11;17.20;99.90
17728;DHT22;8984;49.268;12.302;2023-07-31T00:47:38;17.20;99.90
17728;DHT22;8984;49.268;12.302;2023-07-31T00:50:07;17.20;99.90
17728;DHT22;8984;49.268;12.302;2023-07-31T00:52:35;17.20;99.90
17728;DHT22;8984;49.268;12.302;2023-07-31T00:55:03;17.10;99.90
17728;DHT22;8984;49.268;12.302;2023-07-31T00:57:31;17.10;99.90
17728;DHT22;8984;49.268;12.302;2023-07-31T00:59:58;17.00;99.90
17728;DHT22;8984;49.268;12.302;2023-07-31T01:02:25;16.90;99.90
17728;DHT22;8984;49.268;12.302;2023-07-31T01:04:52;16.80;99.90
17728;DHT22;8984;49.268;12.302;2023-07-31T01:07:22;16.80;99.90
17728;DHT22;8984;49.268;12.302;2023-07-31T01:10:02;16.70;99.90
17728;DHT22;8984;49.268;12.302;2023-07-31T01:12:31;16.70;99.90
17728;DHT22;8984;49.268;12.302;2023-07-31T01:15:03;16.70;99.90
17728;DHT22;8984;49.268;12.302;2023-07-31T01:17:30;16.70;99.90
17728;DHT22;8984;49.268;12.302;2023-07-31T01:20:00;16.60;99.90
17728;DHT22;8984;49.268;12.302;2023-07-31T01:22:37;16.60;99.90
17728;DHT22;8984;49.268;12.302;2023-07-31T01:25:16;16.60;99.90
17728;DHT22;8984;49.268;12.302;2023-07-31T01:27:55;16.60;99.90
17728;DHT22;8984;49.268;12.302;2023-07-31T01:30:27;16.60;99.90
17728;DHT22;8984;49.268;12.302;2023-07-31T01:32:56;16.60;99.90
17728;DHT22;8984;49.268;12.302;2023-07-31T01:35:24;16.60;99.90
17728;DHT22;8984;49.268;12.302;2023-07-31T01:37:52;16.60;99.90
17728;DHT22;8984;49.268;12.302;2023-07-31T01:40:19;16.50;99.90
17728;DHT22;8984;49.268;12.302;2023-07-31T01:42:46;16.50;99.90
17728;DHT22;8984;49.268;12.302;2023-07-31T01:45:14;16.50;99.90
17728;DHT22;8984;49.268;12.302;2023-07-31T01:47:41;16.50;99.90
17728;DHT22;8984;49.268;12.302;2023-07-31T01:50:08;16.50;99.90
17728;DHT22;8984;49.268;12.302;2023-07-31T01:52:35;16.40;99.90
17728;DHT22;8984;49.268;12.302;2023-07-31T01:55:02;16.40;99.90
17728;DHT22;8984;49.268;12.302;2023-07-31T01:57:29;16.40;99.90
17728;DHT22;8984;49.268;12.302;2023-07-31T01:59:56;16.40;99.90
17728;DHT22;8984;49.268;12.302;2023-07-31T02:02:24;16.40;99.90
17728;DHT22;8984;49.268;12.302;2023-07-31T02:04:51;16.40;99.90
17728;DHT22;8984;49.268;12.302;2023-07-31T02:07:17;16.40;99.90
17728;DHT22;8984;49.268;12.302;2023-07-31T02:09:44;16.40;99.90
17728;DHT22;8984;49.268;12.302;2023-07-31T02:12:12;16.30;99.90
17728;DHT22;8984;49.268;12.302;2023-07-31T02:14:40;16.30;99.90
17728;DHT22;8984;49.268;12.302;2023-07-31T02:17:06;16.30;99.90
17728;DHT22;8984;49.268;12.302;2023-07-31T02:19:35;16.30;99.90
17728;DHT22;8984;49.268;12.302;2023-07-31T02:22:01;16.20;99.90
17728;DHT22;8984;49.268;12.302;2023-07-31T02:24:28;16.10;99.90
17728;DHT22;8984;49.268;12.302;2023-07-31T02:26:55;16.10;99.90
17728;DHT22;8984;49.268;12.302;2023-07-31T02:29:21;16.10;99.90
17728;DHT22;8984;49.268;12.302;2023-07-31T02:31:48;16.10;99.90
17728;DHT22;8984;49.268;12.302;2023-07-31T02:34:15;16.10;99.90
17728;DHT22;8984;49.268;12.302;2023-07-31T02:36:43;16.10;99.90
17728;DHT22;8984;49.268;12.302;2023-07-31T02:39:10;16.10;99.90
17728;DHT22;8984;49.268;12.302;2023-07-31T02:41:36;16.10;99.90
17728;DHT22;8984;49.268;12.302;2023-07-31T02:44:03;16.10;99.90
17728;DHT22;8984;49.268;12.302;2023-07-31T02:46:31;16.20;99.90
17728;DHT22;8984;49.268;12.302;2023-07-31T02:48:58;16.10;99.90
17728;DHT22;8984;49.268;12.302;2023-07-31T02:51:25;16.20;99.90
17728;DHT22;8984;49.268;12.302;2023-07-31T02:53:53;16.20;99.90
17728;DHT22;8984;49.268;12.302;2023-07-31T02:56:20;16.20;99.90
17728;DHT22;8984;49.268;12.302;2023-07-31T02:58:48;16.20;99.90
17728;DHT22;8984;49.268;12.302;2023-07-31T03:01:14;16.20;99.90
17728;DHT22;8984;49.268;12.302;2023-07-31T03:03:41;16.10;99.90
17728;DHT22;8984;49.268;12.302;2023-07-31T03:06:08;15.90;99.90
17728;DHT22;8984;49.268;12.302;2023-07-31T03:08:34;15.90;99.90
17728;DHT22;8984;49.268;12.302;2023-07-31T03:11:02;15.90;99.90
17728;DHT22;8984;49.268;12.302;2023-07-31T03:13:29;15.90;99.90
17728;DHT22;8984;49.268;12.302;2023-07-31T03:15:55;15.90;99.90
17728;DHT22;8984;49.268;12.302;2023-07-31T03:18:22;15.90;99.90
17728;DHT22;8984;49.268;12.302;2023-07-31T03:20:49;15.90;99.90
17728;DHT22;8984;49.268;12.302;2023-07-31T03:23:16;16.00;99.90
17728;DHT22;8984;49.268;12.302;2023-07-31T03:25:55;16.00;99.90
17728;DHT22;8984;49.268;12.302;2023-07-31T03:28:24;16.10;99.90
17728;DHT22;8984;49.268;12.302;2023-07-31T03:30:51;16.10;99.90
17728;DHT22;8984;49.268;12.302;2023-07-31T03:33:18;16.20;99.90
17728;DHT22;8984;49.268;12.302;2023-07-31T03:35:45;16.30;99.90
17728;DHT22;8984;49.268;12.302;2023-07-31T03:38:11;16.30;99.90
17728;DHT22;8984;49.268;12.302;2023-07-31T03:40:38;16.30;99.90
17728;DHT22;8984;49.268;12.302;2023-07-31T03:43:05;16.20;99.90
17728;DHT22;8984;49.268;12.302;2023-07-31T03:45:33;16.30;99.90
17728;DHT22;8984;49.268;12.302;2023-07-31T03:48:00;16.30;99.90
17728;DHT22;8984;49.268;12.302;2023-07-31T03:50:27;16.30;99.90
17728;DHT22;8984;49.268;12.302;2023-07-31T03:52:53;16.40;99.90
17728;DHT22;8984;49.268;12.302;2023-07-31T03:55:20;16.40;99.90
17728;DHT22;8984;49.268;12.302;2023-07-31T03:57:48;16.50;99.90
17728;DHT22;8984;49.268;12.302;2023-07-31T04:00:15;16.60;99.90
17728;DHT22;8984;49.268;12.302;2023-07-31T04:02:43;16.70;99.90
17728;DHT22;8984;49.268;12.302;2023-07-31T04:05:10;16.70;99.90
17728;DHT22;8984;49.268;12.302;2023-07-31T04:07:37;16.70;99.90
17728;DHT22;8984;49.268;12.302;2023-07-31T04:10:04;16.70;99.90
17728;DHT22;8984;49.268;12.302;2023-07-31T04:12:31;16.70;99.90
17728;DHT22;8984;49.268;12.302;2023-07-31T04:14:58;16.70;99.90
17728;DHT22;8984;49.268;12.302;2023-07-31T04:17:24;16.70;99.90
17728;DHT22;8984;49.268;12.302;2023-07-31T04:19:52;16.70;99.90
17728;DHT22;8984;49.268;12.302;2023-07-31T04:22:19;16.70;99.90
17728;DHT22;8984;49.268;12.302;2023-07-31T04:24:46;16.70;99.90
17728;DHT22;8984;49.268;12.302;2023-07-31T04:27:13;16.60;99.90
17728;DHT22;8984;49.268;12.302;2023-07-31T04:29:40;16.50;99.90
17728;DHT22;8984;49.268;12.302;2023-07-31T04:32:09;16.60;99.90
17728;DHT22;8984;49.268;12.302;2023-07-31T04:34:36;16.70;99.90
17728;DHT22;8984;49.268;12.302;2023-07-31T04:37:04;16.80;99.90
17728;DHT22;8984;49.268;12.302;2023-07-31T04:39:31;16.80;99.90
17728;DHT22;8984;49.268;12.302;2023-07-31T04:41:58;16.90;99.90
17728;DHT22;8984;49.268;12.302;2023-07-31T04:44:25;17.00;99.90
17728;DHT22;8984;49.268;12.302;2023-07-31T04:46:51;17.10;99.90
17728;DHT22;8984;49.268;12.302;2023-07-31T04:49:18;17.20;99.90
17728;DHT22;8984;49.268;12.302;2023-07-31T04:51:45;17.40;99.90
17728;DHT22;8984;49.268;12.302;2023-07-31T04:54:13;17.60;99.90
17728;DHT22;8984;49.268;12.302;2023-07-31T04:56:41;17.70;99.90
17728;DHT22;8984;49.268;12.302;2023-07-31T04:59:08;18.20;99.90
17728;DHT22;8984;49.268;12.302;2023-07-31T05:01:35;19.30;99.90
17728;DHT22;8984;49.268;12.302;2023-07-31T05:04:01;20.20;99.90
17728;DHT22;8984;49.268;12.302;2023-07-31T05:06:28;20.70;99.90
17728;DHT22;8984;49.268;12.302;2023-07-31T05:08:55;20.70;99.90
17728;DHT22;8984;49.268;12.302;2023-07-31T05:11:23;20.50;99.90
17728;DHT22;8984;49.268;12.302;2023-07-31T05:13:50;20.40;99.90
17728;DHT22;8984;49.268;12.302;2023-07-31T05:16:17;20.40;99.90
17728;DHT22;8984;49.268;12.302;2023-07-31T05:18:43;20.40;99.90
17728;DHT22;8984;49.268;12.302;2023-07-31T05:21:10;20.70;99.90
17728;DHT22;8984;49.268;12.302;2023-07-31T05:23:37;21.20;99.90
17728;DHT22;8984;49.268;12.302;2023-07-31T05:26:04;21.70;99.90
17728;DHT22;8984;49.268;12.302;2023-07-31T05:28:34;21.80;99.90
17728;DHT22;8984;49.268;12.302;2023-07-31T05:31:01;22.00;99.90
17728;DHT22;8984;49.268;12.302;2023-07-31T05:33:28;22.10;99.90
17728;DHT22;8984;49.268;12.302;2023-07-31T05:35:55;22.20;99.90
17728;DHT22;8984;49.268;12.302;2023-07-31T05:38:22;22.50;99.90
17728;DHT22;8984;49.268;12.302;2023-07-31T05:40:49;22.70;99.90
17728;DHT22;8984;49.268;12.302;2023-07-31T05:43:16;22.80;99.90
17728;DHT22;8984;49.268;12.302;2023-07-31T05:45:44;22.90;99.90
17728;DHT22;8984;49.268;12.302;2023-07-31T05:48:10;23.10;99.90
17728;DHT22;8984;49.268;12.302;2023-07-31T05:50:37;23.30;99.90
17728;DHT22;8984;49.268;12.302;2023-07-31T05:53:05;23.20;99.90
17728;DHT22;8984;49.268;12.302;2023-07-31T05:55:33;23.10;99.90
17728;DHT22;8984;49.268;12.302;2023-07-31T05:58:00;22.90;99.90
17728;DHT22;8984;49.268;12.302;2023-07-31T06:00:27;22.90;99.90
17728;DHT22;8984;49.268;12.302;2023-07-31T06:02:55;22.80;99.90
17728;DHT22;8984;49.268;12.302;2023-07-31T06:05:22;22.90;99.90
17728;DHT22;8984;49.268;12.302;2023-07-31T06:07:48;22.90;99.90
17728;DHT22;8984;49.268;12.302;2023-07-31T06:10:15;23.10;99.90
17728;DHT22;8984;49.268;12.302;2023-07-31T06:12:42;23.20;99.90
17728;DHT22;8984;49.268;12.302;2023-07-31T06:15:09;23.40;99.90
17728;DHT22;8984;49.268;12.302;2023-07-31T06:17:36;23.30;99.90
17728;DHT22;8984;49.268;12.302;2023-07-31T06:20:06;23.10;99.90
17728;DHT22;8984;49.268;12.302;2023-07-31T06:22:33;23.10;99.90
17728;DHT22;8984;49.268;12.302;2023-07-31T06:25:00;23.20;99.90
17728;DHT22;8984;49.268;12.302;2023-07-31T06:27:27;23.10;99.90
17728;DHT22;8984;49.268;12.302;2023-07-31T06:29:53;23.20;99.90
17728;DHT22;8984;49.268;12.302;2023-07-31T06:32:20;23.20;99.90
17728;DHT22;8984;49.268;12.302;2023-07-31T06:34:47;23.20;99.90
17728;DHT22;8984;49.268;12.302;2023-07-31T06:37:16;23.40;99.90
17728;DHT22;8984;49.268;12.302;2023-07-31T06:39:43;23.40;99.90
17728;DHT22;8984;49.268;12.302;2023-07-31T06:42:10;23.30;99.90
17728;DHT22;8984;49.268;12.302;2023-07-31T06:44:38;23.10;99.90
17728;DHT22;8984;49.268;12.302;2023-07-31T06:47:05;23.10;99.90
17728;DHT22;8984;49.268;12.302;2023-07-31T06:49:32;23.10;99.90
17728;DHT22;8984;49.268;12.302;2023-07-31T06:51:58;23.30;99.90
17728;DHT22;8984;49.268;12.302;2023-07-31T06:54:27;23.40;99.90
17728;DHT22;8984;49.268;12.302;2023-07-31T06:56:53;23.30;99.90
17728;DHT22;8984;49.268;12.302;2023-07-31T06:59:20;23.20;99.90
17728;DHT22;8984;49.268;12.302;2023-07-31T07:01:47;23.20;99.90
17728;DHT22;8984;49.268;12.302;2023-07-31T07:04:14;23.20;99.90
17728;DHT22;8984;49.268;12.302;2023-07-31T07:06:40;23.10;99.90
17728;DHT22;8984;49.268;12.302;2023-07-31T07:09:07;23.00;99.90
17728;DHT22;8984;49.268;12.302;2023-07-31T07:11:35;23.10;99.90
17728;DHT22;8984;49.268;12.302;2023-07-31T07:14:03;23.00;99.90
17728;DHT22;8984;49.268;12.302;2023-07-31T07:16:30;23.10;99.90
17728;DHT22;8984;49.268;12.302;2023-07-31T07:18:56;22.80;99.90
17728;DHT22;8984;49.268;12.302;2023-07-31T07:21:23;22.80;99.90
17728;DHT22;8984;49.268;12.302;2023-07-31T07:23:50;22.90;99.90
17728;DHT22;8984;49.268;12.302;2023-07-31T07:26:17;23.00;99.90
17728;DHT22;8984;49.268;12.302;2023-07-31T07:28:45;23.30;99.90
17728;DHT22;8984;49.268;12.302;2023-07-31T07:31:12;23.40;99.90
17728;DHT22;8984;49.268;12.302;2023-07-31T07:33:38;23.40;99.90
17728;DHT22;8984;49.268;12.302;2023-07-31T07:36:05;23.00;99.90
17728;DHT22;8984;49.268;12.302;2023-07-31T07:38:35;23.20;99.90
17728;DHT22;8984;49.268;12.302;2023-07-31T07:41:02;23.40;99.90
17728;DHT22;8984;49.268;12.302;2023-07-31T07:43:30;23.50;99.90
17728;DHT22;8984;49.268;12.302;2023-07-31T07:45:58;23.50;99.90
17728;DHT22;8984;49.268;12.302;2023-07-31T07:48:25;23.70;99.90
17728;DHT22;8984;49.268;12.302;2023-07-31T07:50:52;23.30;99.90
17728;DHT22;8984;49.268;12.302;2023-07-31T07:53:19;23.50;99.90
17728;DHT22;8984;49.268;12.302;2023-07-31T07:55:45;23.60;99.90
17728;DHT22;8984;49.268;12.302;2023-07-31T07:58:12;23.60;99.90
17728;DHT22;8984;49.268;12.302;2023-07-31T08:00:39;23.40;99.90
17728;DHT22;8984;49.268;12.302;2023-07-31T08:03:07;23.40;99.90
17728;DHT22;8984;49.268;12.302;2023-07-31T08:05:35;23.80;99.90
17728;DHT22;8984;49.268;12.302;2023-07-31T08:08:01;24.10;99.90
17728;DHT22;8984;49.268;12.302;2023-07-31T08:10:28;24.20;99.90
17728;DHT22;8984;49.268;12.302;2023-07-31T08:12:55;24.30;99.90
17728;DHT22;8984;49.268;12.302;2023-07-31T08:15:22;24.10;99.90
17728;DHT22;8984;49.268;12.302;2023-07-31T08:17:48;24.50;99.90
17728;DHT22;8984;49.268;12.302;2023-07-31T08:20:17;24.80;99.90
17728;DHT22;8984;49.268;12.302;2023-07-31T08:22:44;24.70;99.90
17728;DHT22;8984;49.268;12.302;2023-07-31T08:25:10;24.90;99.90
17728;DHT22;8984;49.268;12.302;2023-07-31T08:27:37;24.80;99.90
17728;DHT22;8984;49.268;12.302;2023-07-31T08:30:05;24.90;99.90
17728;DHT22;8984;49.268;12.302;2023-07-31T08:32:32;24.70;99.90
17728;DHT22;8984;49.268;12.302;2023-07-31T08:34:58;24.80;99.90
17728;DHT22;8984;49.268;12.302;2023-07-31T08:37:26;25.10;99.90
17728;DHT22;8984;49.268;12.302;2023-07-31T08:39:53;24.90;99.90
17728;DHT22;8984;49.268;12.302;2023-07-31T08:42:20;24.80;99.90
17728;DHT22;8984;49.268;12.302;2023-07-31T08:44:47;24.60;99.90
17728;DHT22;8984;49.268;12.302;2023-07-31T08:47:16;24.80;99.90
17728;DHT22;8984;49.268;12.302;2023-07-31T08:49:43;24.90;99.90
17728;DHT22;8984;49.268;12.302;2023-07-31T08:52:11;24.90;99.90
17728;DHT22;8984;49.268;12.302;2023-07-31T08:54:39;24.70;99.90
17728;DHT22;8984;49.268;12.302;2023-07-31T08:57:06;24.50;99.90
17728;DHT22;8984;49.268;12.302;2023-07-31T08:59:35;24.40;99.90
17728;DHT22;8984;49.268;12.302;2023-07-31T09:02:05;24.40;99.90
17728;DHT22;8984;49.268;12.302;2023-07-31T09:04:33;24.40;99.90
17728;DHT22;8984;49.268;12.302;2023-07-31T09:07:01;24.50;99.90
17728;DHT22;8984;49.268;12.302;2023-07-31T09:09:28;24.60;99.90
17728;DHT22;8984;49.268;12.302;2023-07-31T09:11:58;24.60;99.90
17728;DHT22;8984;49.268;12.302;2023-07-31T09:14:25;24.70;99.90
17728;DHT22;8984;49.268;12.302;2023-07-31T09:16:53;24.70;99.90
17728;DHT22;8984;49.268;12.302;2023-07-31T09:19:27;24.80;99.90
17728;DHT22;8984;49.268;12.302;2023-07-31T09:21:54;25.10;99.90
17728;DHT22;8984;49.268;12.302;2023-07-31T09:24:26;25.20;99.90
17728;DHT22;8984;49.268;12.302;2023-07-31T09:26:54;25.30;99.90
17728;DHT22;8984;49.268;12.302;2023-07-31T09:29:23;25.30;99.90
17728;DHT22;8984;49.268;12.302;2023-07-31T09:31:50;25.10;99.90
17728;DHT22;8984;49.268;12.302;2023-07-31T09:34:17;25.00;99.90
17728;DHT22;8984;49.268;12.302;2023-07-31T09:36:45;25.00;99.90
17728;DHT22;8984;49.268;12.302;2023-07-31T09:39:14;24.90;99.90
17728;DHT22;8984;49.268;12.302;2023-07-31T09:41:44;24.80;99.90
17728;DHT22;8984;49.268;12.302;2023-07-31T09:44:12;24.80;99.90
17728;DHT22;8984;49.268;12.302;2023-07-31T09:46:40;24.70;99.90
17728;DHT22;8984;49.268;12.302;2023-07-31T09:49:08;24.90;99.90
17728;DHT22;8984;49.268;12.302;2023-07-31T09:51:36;24.80;99.90
17728;DHT22;8984;49.268;12.302;2023-07-31T09:54:10;25.00;99.90
17728;DHT22;8984;49.268;12.302;2023-07-31T09:56:42;24.80;99.90
17728;DHT22;8984;49.268;12.302;2023-07-31T09:59:11;24.80;99.90
17728;DHT22;8984;49.268;12.302;2023-07-31T10:01:41;25.00;99.90
17728;DHT22;8984;49.268;12.302;2023-07-31T10:04:09;25.20;99.90
17728;DHT22;8984;49.268;12.302;2023-07-31T10:06:37;25.40;99.90
17728;DHT22;8984;49.268;12.302;2023-07-31T10:09:06;25.60;99.90
17728;DHT22;8984;49.268;12.302;2023-07-31T10:11:36;25.60;99.90
17728;DHT22;8984;49.268;12.302;2023-07-31T10:14:05;25.70;99.90
17728;DHT22;8984;49.268;12.302;2023-07-31T10:16:32;25.60;99.90
17728;DHT22;8984;49.268;12.302;2023-07-31T10:19:01;25.70;99.90
17728;DHT22;8984;49.268;12.302;2023-07-31T10:21:28;25.80;99.90
17728;DHT22;8984;49.268;12.302;2023-07-31T10:23:56;25.80;99.90
17728;DHT22;8984;49.268;12.302;2023-07-31T10:26:25;25.90;99.90
17728;DHT22;8984;49.268;12.302;2023-07-31T10:28:53;25.90;99.90
17728;DHT22;8984;49.268;12.302;2023-07-31T10:31:20;26.10;99.60
17728;DHT22;8984;49.268;12.302;2023-07-31T10:33:47;25.80;99.90
17728;DHT22;8984;49.268;12.302;2023-07-31T10:36:17;25.80;99.80
17728;DHT22;8984;49.268;12.302;2023-07-31T10:38:44;25.40;99.50
17728;DHT22;8984;49.268;12.302;2023-07-31T10:41:12;25.80;99.90
17728;DHT22;8984;49.268;12.302;2023-07-31T10:43:38;25.90;99.90
17728;DHT22;8984;49.268;12.302;2023-07-31T10:46:09;25.40;99.90
17728;DHT22;8984;49.268;12.302;2023-07-31T10:48:37;25.50;99.70
17728;DHT22;8984;49.268;12.302;2023-07-31T10:51:08;25.60;99.90
17728;DHT22;8984;49.268;12.302;2023-07-31T10:53:40;25.70;99.90
17728;DHT22;8984;49.268;12.302;2023-07-31T10:56:08;25.60;99.50
17728;DHT22;8984;49.268;12.302;2023-07-31T10:58:38;25.60;99.90
17728;DHT22;8984;49.268;12.302;2023-07-31T11:01:06;25.80;99.90
17728;DHT22;8984;49.268;12.302;2023-07-31T11:03:43;26.00;98.90
17728;DHT22;8984;49.268;12.302;2023-07-31T11:06:10;26.40;99.10
17728;DHT22;8984;49.268;12.302;2023-07-31T11:08:43;26.40;98.70
17728;DHT22;8984;49.268;12.302;2023-07-31T11:11:11;26.10;98.60
17728;DHT22;8984;49.268;12.302;2023-07-31T11:13:44;26.30;98.50
17728;DHT22;8984;49.268;12.302;2023-07-31T11:16:14;26.20;98.80
17728;DHT22;8984;49.268;12.302;2023-07-31T11:18:41;26.20;98.80
17728;DHT22;8984;49.268;12.302;2023-07-31T11:21:11;26.20;99.10
17728;DHT22;8984;49.268;12.302;2023-07-31T11:23:38;26.20;99.10
17728;DHT22;8984;49.268;12.302;2023-07-31T11:26:07;26.20;98.60
17728;DHT22;8984;49.268;12.302;2023-07-31T11:28:35;25.90;99.00
17728;DHT22;8984;49.268;12.302;2023-07-31T11:31:02;25.80;99.30
17728;DHT22;8984;49.268;12.302;2023-07-31T11:33:33;25.90;99.10
17728;DHT22;8984;49.268;12.302;2023-07-31T11:36:10;26.00;99.40
17728;DHT22;8984;49.268;12.302;2023-07-31T11:38:47;26.20;99.10
17728;DHT22;8984;49.268;12.302;2023-07-31T11:41:42;26.40;98.80
17728;DHT22;8984;49.268;12.302;2023-07-31T11:44:12;26.40;99.20
17728;DHT22;8984;49.268;12.302;2023-07-31T11:46:44;26.40;98.40
17728;DHT22;8984;49.268;12.302;2023-07-31T11:49:28;26.50;98.80
17728;DHT22;8984;49.268;12.302;2023-07-31T11:52:02;26.40;98.80
17728;DHT22;8984;49.268;12.302;2023-07-31T11:54:36;26.10;98.70
17728;DHT22;8984;49.268;12.302;2023-07-31T11:57:08;26.40;99.00
17728;DHT22;8984;49.268;12.302;2023-07-31T12:00:09;26.50;98.20
17728;DHT22;8984;49.268;12.302;2023-07-31T12:02:39;26.70;98.40
17728;DHT22;8984;49.268;12.302;2023-07-31T12:05:11;27.00;98.90
17728;DHT22;8984;49.268;12.302;2023-07-31T12:07:49;27.00;97.60
17728;DHT22;8984;49.268;12.302;2023-07-31T12:10:28;27.10;97.80
17728;DHT22;8984;49.268;12.302;2023-07-31T12:13:00;26.80;97.90
17728;DHT22;8984;49.268;12.302;2023-07-31T12:15:32;26.80;97.80
17728;DHT22;8984;49.268;12.302;2023-07-31T12:18:10;27.00;98.00
17728;DHT22;8984;49.268;12.302;2023-07-31T12:20:47;27.30;98.00
17728;DHT22;8984;49.268;12.302;2023-07-31T12:23:19;27.50;97.80
17728;DHT22;8984;49.268;12.302;2023-07-31T12:26:01;27.70;96.80
17728;DHT22;8984;49.268;12.302;2023-07-31T12:28:37;27.60;96.50
17728;DHT22;8984;49.268;12.302;2023-07-31T12:31:11;27.40;96.80
17728;DHT22;8984;49.268;12.302;2023-07-31T12:33:42;27.70;96.80
17728;DHT22;8984;49.268;12.302;2023-07-31T12:36:22;27.70;96.90
17728;DHT22;8984;49.268;12.302;2023-07-31T12:39:03;27.50;96.10
17728;DHT22;8984;49.268;12.302;2023-07-31T12:41:34;27.70;97.00
17728;DHT22;8984;49.268;12.302;2023-07-31T12:44:05;27.80;96.80
17728;DHT22;8984;49.268;12.302;2023-07-31T12:46:33;27.60;96.10
17728;DHT22;8984;49.268;12.302;2023-07-31T12:49:06;27.60;96.40
17728;DHT22;8984;49.268;12.302;2023-07-31T12:51:33;27.40;96.50
17728;DHT22;8984;49.268;12.302;2023-07-31T12:54:02;27.00;96.70
17728;DHT22;8984;49.268;12.302;2023-07-31T12:56:33;26.80;96.90
17728;DHT22;8984;49.268;12.302;2023-07-31T12:59:07;26.50;97.20
17728;DHT22;8984;49.268;12.302;2023-07-31T13:01:38;26.70;97.40
17728;DHT22;8984;49.268;12.302;2023-07-31T13:04:06;26.50;97.60
17728;DHT22;8984;49.268;12.302;2023-07-31T13:06:34;26.50;97.70
17728;DHT22;8984;49.268;12.302;2023-07-31T13:09:07;26.40;97.80
17728;DHT22;8984;49.268;12.302;2023-07-31T13:11:36;26.50;97.90
17728;DHT22;8984;49.268;12.302;2023-07-31T13:14:14;26.50;97.70
17728;DHT22;8984;49.268;12.302;2023-07-31T13:16:44;26.70;97.10
17728;DHT22;8984;49.268;12.302;2023-07-31T13:19:16;26.90;97.00
17728;DHT22;8984;49.268;12.302;2023-07-31T13:21:44;27.00;97.10
17728;DHT22;8984;49.268;12.302;2023-07-31T13:24:13;26.90;96.50
17728;DHT22;8984;49.268;12.302;2023-07-31T13:26:41;26.80;96.40
17728;DHT22;8984;49.268;12.302;2023-07-31T13:29:11;26.50;96.70
17728;DHT22;8984;49.268;12.302;2023-07-31T13:31:42;26.60;96.80
17728;DHT22;8984;49.268;12.302;2023-07-31T13:34:10;26.90;97.40
17728;DHT22;8984;49.268;12.302;2023-07-31T13:36:40;26.90;96.60
17728;DHT22;8984;49.268;12.302;2023-07-31T13:39:17;27.10;97.10
17728;DHT22;8984;49.268;12.302;2023-07-31T13:42:04;27.30;97.00
17728;DHT22;8984;49.268;12.302;2023-07-31T13:44:35;27.80;95.90
17728;DHT22;8984;49.268;12.302;2023-07-31T13:47:04;28.00;95.70
17728;DHT22;8984;49.268;12.302;2023-07-31T13:49:32;28.20;96.00
17728;DHT22;8984;49.268;12.302;2023-07-31T13:52:01;28.20;96.00
17728;DHT22;8984;49.268;12.302;2023-07-31T13:54:28;28.50;96.20
17728;DHT22;8984;49.268;12.302;2023-07-31T13:56:57;28.50;95.80
17728;DHT22;8984;49.268;12.302;2023-07-31T13:59:27;28.70;95.80
17728;DHT22;8984;49.268;12.302;2023-07-31T14:02:11;28.70;95.90
17728;DHT22;8984;49.268;12.302;2023-07-31T14:04:39;28.30;95.30
17728;DHT22;8984;49.268;12.302;2023-07-31T14:07:09;28.20;95.80
17728;DHT22;8984;49.268;12.302;2023-07-31T14:09:45;28.00;95.30
17728;DHT22;8984;49.268;12.302;2023-07-31T14:12:13;27.90;95.80
17728;DHT22;8984;49.268;12.302;2023-07-31T14:14:44;27.90;95.60
17728;DHT22;8984;49.268;12.302;2023-07-31T14:17:20;27.80;96.10
17728;DHT22;8984;49.268;12.302;2023-07-31T14:19:47;27.70;96.00
17728;DHT22;8984;49.268;12.302;2023-07-31T14:22:30;27.50;96.30
17728;DHT22;8984;49.268;12.302;2023-07-31T14:25:00;27.50;96.00
17728;DHT22;8984;49.268;12.302;2023-07-31T14:27:39;27.50;96.60
17728;DHT22;8984;49.268;12.302;2023-07-31T14:32:57;27.10;96.40
17728;DHT22;8984;49.268;12.302;2023-07-31T14:35:28;26.90;97.00
17728;DHT22;8984;49.268;12.302;2023-07-31T14:37:57;27.00;97.00
17728;DHT22;8984;49.268;12.302;2023-07-31T14:40:26;27.00;97.20
17728;DHT22;8984;49.268;12.302;2023-07-31T14:43:00;26.70;97.20
17728;DHT22;8984;49.268;12.302;2023-07-31T14:45:30;26.80;97.20
17728;DHT22;8984;49.268;12.302;2023-07-31T14:48:13;26.70;97.00
17728;DHT22;8984;49.268;12.302;2023-07-31T14:50:42;26.80;97.20
17728;DHT22;8984;49.268;12.302;2023-07-31T14:53:11;26.70;97.40
17728;DHT22;8984;49.268;12.302;2023-07-31T14:55:39;26.80;97.60
17728;DHT22;8984;49.268;12.302;2023-07-31T14:58:07;26.90;97.40
17728;DHT22;8984;49.268;12.302;2023-07-31T15:00:36;27.00;97.50
17728;DHT22;8984;49.268;12.302;2023-07-31T15:03:07;27.00;97.50
17728;DHT22;8984;49.268;12.302;2023-07-31T15:05:43;26.90;97.20
17728;DHT22;8984;49.268;12.302;2023-07-31T15:08:16;26.80;97.30
17728;DHT22;8984;49.268;12.302;2023-07-31T15:10:50;26.70;97.50
17728;DHT22;8984;49.268;12.302;2023-07-31T15:13:23;26.40;97.60
17728;DHT22;8984;49.268;12.302;2023-07-31T15:16:10;26.50;97.90
17728;DHT22;8984;49.268;12.302;2023-07-31T15:18:43;26.60;98.10
17728;DHT22;8984;49.268;12.302;2023-07-31T15:21:18;26.60;98.20
17728;DHT22;8984;49.268;12.302;2023-07-31T15:23:48;26.50;97.90
17728;DHT22;8984;49.268;12.302;2023-07-31T15:26:19;26.50;98.20
17728;DHT22;8984;49.268;12.302;2023-07-31T15:28:55;26.70;98.10
17728;DHT22;8984;49.268;12.302;2023-07-31T15:31:28;26.70;97.70
17728;DHT22;8984;49.268;12.302;2023-07-31T15:34:03;26.80;97.90
17728;DHT22;8984;49.268;12.302;2023-07-31T15:36:50;26.70;98.10
17728;DHT22;8984;49.268;12.302;2023-07-31T15:39:29;26.70;98.00
17728;DHT22;8984;49.268;12.302;2023-07-31T15:42:15;26.70;98.20
17728;DHT22;8984;49.268;12.302;2023-07-31T15:45:19;26.80;98.10